| time (UTC) | temp F | wind direction | speed knots | gust knots | rain 1hr in | rain 24hr in | rain mn in | humidity % | barometer mb |
| 20260507060038 | 44 | 360 | 0.0 | 0.0 | 0.00 | 0.35 | 0.00 | 96 | 1005.8 |
| 20260507054525 | 44 | 360 | 0.0 | 0.0 | 0.00 | 0.35 | 0.00 | 96 | 1005.9 |
| 20260507053024 | 44 | 273 | 0.0 | 0.0 | 0.00 | 0.35 | 0.00 | 96 | 1005.5 |
| 20260507051524 | 44 | 360 | 0.0 | 0.0 | 0.00 | 0.35 | 0.00 | 96 | 1005.5 |
| 20260507050020 | 44 | 360 | 0.0 | 0.0 | 0.00 | 0.35 | 0.00 | 96 | 1005.5 |
| 20260507044519 | 45 | 360 | 0.0 | 0.0 | 0.00 | 0.35 | 0.00 | 96 | 1005.6 |
| 20260507043018 | 45 | 360 | 0.0 | 0.0 | 0.00 | 0.35 | 0.00 | 96 | 1005.7 |
| 20260507041515 | 45 | 360 | 0.0 | 0.0 | 0.00 | 0.35 | 0.00 | 96 | 1005.9 |
| 20260507040009 | 46 | 360 | 0.0 | 0.0 | 0.01 | 0.35 | 0.00 | 96 | 1005.6 |
| 20260507034520 | 46 | 360 | 0.0 | 0.0 | 0.02 | 0.35 | 0.35 | 96 | 1005.5 |
| 20260507033006 | 46 | 360 | 0.0 | 0.0 | 0.02 | 0.35 | 0.35 | 96 | 1005.4 |
| 20260507031504 | 47 | 360 | 0.0 | 0.0 | 0.02 | 0.35 | 0.35 | 96 | 1005.3 |
| 20260507030005 | 47 | 360 | 0.0 | 0.0 | 0.02 | 0.34 | 0.34 | 96 | 1005.3 |
| 20260507024559 | 48 | 360 | 0.0 | 0.0 | 0.02 | 0.33 | 0.33 | 96 | 1005.1 |
| 20260507023056 | 49 | 360 | 0.0 | 0.0 | 0.02 | 0.33 | 0.33 | 96 | 1004.9 |
| 20260507021554 | 50 | 360 | 0.0 | 0.0 | 0.03 | 0.33 | 0.33 | 96 | 1004.8 |
| 20260507020052 | 51 | 360 | 0.0 | 0.0 | 0.02 | 0.32 | 0.32 | 96 | 1004.8 |
| 20260507014552 | 52 | 360 | 0.0 | 0.0 | 0.06 | 0.31 | 0.31 | 96 | 1004.8 |
| 20260507013056 | 52 | 360 | 0.0 | 0.0 | 0.07 | 0.31 | 0.31 | 96 | 1004.9 |
| 20260507011545 | 53 | 360 | 0.0 | 0.0 | 0.06 | 0.30 | 0.30 | 95 | 1004.8 |
| 20260507010053 | 54 | 360 | 0.0 | 0.0 | 0.06 | 0.30 | 0.30 | 94 | 1004.7 |
| 20260507004539 | 57 | 360 | 0.0 | 0.0 | 0.01 | 0.25 | 0.25 | 95 | 1004.3 |
| 20260507003038 | 57 | 163 | 0.0 | 0.0 | 0.01 | 0.24 | 0.24 | 95 | 1003.9 |
| 20260507001538 | 57 | 360 | 0.0 | 0.0 | 0.01 | 0.24 | 0.24 | 95 | 1003.8 |
| 20260507000036 | 57 | 360 | 0.0 | 0.0 | 0.01 | 0.24 | 0.24 | 94 | 1003.5 |
| 20260506234537 | 57 | 360 | 0.0 | 0.0 | 0.01 | 0.25 | 0.24 | 94 | 1003.5 |
| 20260506233053 | 58 | 360 | 0.0 | 0.0 | 0.00 | 0.24 | 0.23 | 93 | 1003.3 |
| 20260506231538 | 58 | 163 | 0.0 | 0.0 | 0.00 | 0.24 | 0.23 | 93 | 1003.2 |
| 20260506230033 | 58 | 360 | 0.0 | 0.0 | 0.00 | 0.24 | 0.23 | 92 | 1003.0 |
| 20260506224531 | 59 | 360 | 0.0 | 0.0 | 0.00 | 0.25 | 0.23 | 92 | 1003.4 |
| 20260506223030 | 59 | 360 | 0.0 | 0.0 | 0.00 | 0.25 | 0.23 | 92 | 1003.3 |
| 20260506221528 | 59 | 360 | 0.0 | 0.0 | 0.00 | 0.25 | 0.23 | 92 | 1003.7 |
| 20260506220030 | 59 | 360 | 0.0 | 0.0 | 0.00 | 0.25 | 0.23 | 92 | 1003.6 |
| 20260506214527 | 59 | 360 | 0.0 | 0.0 | 0.00 | 0.25 | 0.23 | 92 | 1003.7 |
| 20260506213027 | 59 | 150 | 0.0 | 0.0 | 0.00 | 0.25 | 0.23 | 92 | 1003.9 |
| 20260506211528 | 59 | 178 | 0.0 | 0.0 | 0.00 | 0.25 | 0.23 | 93 | 1003.7 |
| 20260506210033 | 59 | 360 | 0.0 | 0.0 | 0.02 | 0.25 | 0.23 | 93 | 1003.9 |
| 20260506204524 | 59 | 123 | 0.0 | 0.0 | 0.07 | 0.25 | 0.23 | 93 | 1003.9 |
| 20260506203022 | 59 | 103 | 0.0 | 0.0 | 0.09 | 0.25 | 0.23 | 93 | 1004.3 |
| 20260506201525 | 58 | 184 | 0.0 | 0.0 | 0.10 | 0.25 | 0.23 | 93 | 1004.4 |
| 20260506200034 | 58 | 360 | 0.0 | 0.0 | 0.08 | 0.22 | 0.20 | 92 | 1004.5 |
| 20260506194518 | 59 | 146 | 0.0 | 0.0 | 0.04 | 0.18 | 0.16 | 91 | 1004.5 |
| 20260506193016 | 58 | 360 | 0.0 | 0.0 | 0.03 | 0.16 | 0.14 | 92 | 1004.6 |
| 20260506191514 | 59 | 158 | 0.0 | 0.0 | 0.03 | 0.15 | 0.13 | 92 | 1004.8 |
| 20260506190014 | 59 | 360 | 0.0 | 0.0 | 0.04 | 0.14 | 0.12 | 92 | 1005.2 |
| 20260506184512 | 59 | 86 | 0.0 | 0.0 | 0.07 | 0.14 | 0.12 | 91 | 1005.3 |
| 20260506183011 | 59 | 360 | 0.0 | 0.0 | 0.08 | 0.13 | 0.11 | 91 | 1005.3 |
| 20260506181514 | 59 | 171 | 0.0 | 0.0 | 0.09 | 0.12 | 0.10 | 91 | 1005.8 |
| 20260506180015 | 60 | 122 | 0.0 | 0.0 | 0.07 | 0.09 | 0.07 | 89 | 1006.0 |
| 20260506174505 | 60 | 360 | 0.0 | 0.0 | 0.05 | 0.07 | 0.05 | 89 | 1006.1 |
| 20260506173005 | 60 | 107 | 0.0 | 0.0 | 0.03 | 0.05 | 0.03 | 87 | 1006.1 |
| 20260506171504 | 61 | 360 | 0.0 | 0.0 | 0.01 | 0.03 | 0.01 | 84 | 1006.0 |
| 20260506170002 | 63 | 165 | 0.0 | 0.0 | 0.00 | 0.02 | 0.00 | 82 | 1006.1 |
| 20260506164623 | 63 | 132 | 0.0 | 0.0 | 0.00 | 0.02 | 0.00 | 79 | 1006.2 |
| 20260506163107 | 64 | 110 | 0.0 | 0.0 | 0.00 | 0.02 | 0.00 | 78 | 1006.3 |
| 20260506161557 | 63 | 126 | 0.0 | 0.0 | 0.00 | 0.02 | 0.00 | 82 | 1006.7 |
| 20260506160107 | 62 | 141 | 0.0 | 0.0 | 0.00 | 0.02 | 0.00 | 81 | 1007.2 |
| 20260506154554 | 63 | 133 | 0.0 | 0.0 | 0.00 | 0.02 | 0.00 | 79 | 1007.7 |
| 20260506153052 | 62 | 173 | 0.0 | 0.0 | 0.00 | 0.02 | 0.00 | 80 | 1007.6 |
| 20260506151553 | 61 | 175 | 0.0 | 0.0 | 0.00 | 0.02 | 0.00 | 80 | 1007.8 |
| 20260506150052 | 61 | 134 | 0.0 | 0.0 | 0.00 | 0.02 | 0.00 | 81 | 1007.6 |
| 20260506144551 | 60 | 360 | 0.0 | 0.0 | 0.00 | 0.02 | 0.00 | 81 | 1007.6 |
| 20260506143051 | 60 | 360 | 0.0 | 0.0 | 0.00 | 0.02 | 0.00 | 81 | 1007.3 |
| 20260506141607 | 60 | 360 | 0.0 | 0.0 | 0.00 | 0.02 | 0.00 | 81 | 1007.3 |
| 20260506140050 | 59 | 360 | 0.0 | 0.0 | 0.00 | 0.02 | 0.00 | 82 | 1007.2 |
| 20260506134547 | 59 | 360 | 0.0 | 0.0 | 0.00 | 0.02 | 0.00 | 82 | 1007.6 |
| 20260506133047 | 59 | 146 | 0.0 | 0.0 | 0.00 | 0.02 | 0.00 | 82 | 1007.7 |
| 20260506131546 | 59 | 360 | 0.0 | 0.0 | 0.00 | 0.02 | 0.00 | 82 | 1007.6 |
| 20260506130045 | 59 | 360 | 0.0 | 0.0 | 0.00 | 0.02 | 0.00 | 82 | 1007.6 |
| 20260506124545 | 59 | 360 | 0.0 | 0.0 | 0.00 | 0.02 | 0.00 | 82 | 1007.6 |
| 20260506123046 | 59 | 163 | 0.0 | 0.0 | 0.00 | 0.02 | 0.00 | 81 | 1007.6 |
| 20260506121554 | 59 | 183 | 0.0 | 0.0 | 0.00 | 0.02 | 0.00 | 81 | 1007.7 |
| 20260506120108 | 58 | 360 | 0.0 | 0.0 | 0.00 | 0.02 | 0.00 | 82 | 1007.9 |
| 20260506114545 | 57 | 360 | 0.0 | 0.0 | 0.00 | 0.02 | 0.00 | 83 | 1007.7 |
| 20260506113042 | 57 | 360 | 0.0 | 0.0 | 0.00 | 0.02 | 0.00 | 83 | 1007.8 |
| 20260506111542 | 57 | 134 | 0.0 | 0.0 | 0.00 | 0.02 | 0.00 | 82 | 1007.7 |
| 20260506110041 | 57 | 167 | 0.0 | 0.0 | 0.00 | 0.02 | 0.00 | 81 | 1007.9 |
| 20260506104541 | 57 | 185 | 0.0 | 0.0 | 0.00 | 0.02 | 0.00 | 80 | 1008.2 |
| 20260506103038 | 57 | 360 | 0.0 | 0.0 | 0.00 | 0.02 | 0.00 | 81 | 1008.3 |
| 20260506101536 | 57 | 360 | 0.0 | 0.0 | 0.00 | 0.02 | 0.00 | 78 | 1007.8 |
| 20260506100034 | 58 | 126 | 0.0 | 0.0 | 0.00 | 0.02 | 0.00 | 76 | 1008.0 |
| 20260506094535 | 58 | 180 | 0.0 | 0.0 | 0.00 | 0.02 | 0.00 | 76 | 1007.7 |
| 20260506093042 | 58 | 360 | 0.0 | 0.0 | 0.00 | 0.02 | 0.00 | 76 | 1007.8 |
| 20260506091528 | 58 | 360 | 0.0 | 0.0 | 0.00 | 0.02 | 0.00 | 76 | 1007.8 |
| 20260506090027 | 59 | 360 | 0.0 | 0.0 | 0.00 | 0.02 | 0.00 | 75 | 1007.9 |
| 20260506084526 | 59 | 181 | 0.0 | 0.0 | 0.00 | 0.02 | 0.00 | 75 | 1008.0 |
| 20260506083023 | 59 | 181 | 0.0 | 0.0 | 0.00 | 0.02 | 0.00 | 74 | 1008.0 |
| 20260506081521 | 59 | 360 | 0.0 | 0.0 | 0.00 | 0.02 | 0.00 | 74 | 1008.0 |
| 20260506073018 | 60 | 360 | 0.0 | 0.0 | 0.00 | 0.02 | 0.00 | 72 | 1007.7 |
| 20260506071513 | 60 | 360 | 0.0 | 0.0 | 0.00 | 0.02 | 0.00 | 72 | 1007.8 |
| 20260506061603 | 61 | 360 | 0.0 | 0.0 | 0.00 | 0.02 | 0.00 | 69 | 1007.6 |